Latest Weather Observations for Maatsuyker Island

IDT60801

Issued at 6:31 am EDT Monday 18 November 2019 (issued every 10 minutes, with the page automatically refreshed every 10 minutes)

About weather observations | Map of weather stations | Latest weather observations for TAS | Other Formats
Station Details ID: 094041 Name: MAATSUYKER ISLAND LIGHTHOUSE Lat: -43.66 Lon: 146.27 Height: 146.5 m
Data from the previous 72 hours. | See also: Recent months at Maatsuyker Island
Date/Time
EDT
Temp
°C
App
Temp
°C
Dew
Point
°C
Rel
Hum
%
Delta-T
°C
Wind Press
QNH
hPa
Press
MSL
hPa
Rain since
9am
mm
Dir  Spd
km/h
Gust
km/h
Spd
kts
Gust
kts
18/06:00am 9.2 -9.4 7.8 91 0.7 NW 95 113 51 61 1001.5 1001.6 0.8
18/05:30am 9.6 -7.8 8.0 90 0.8 NW 89 109 48 59 1001.8 - 0.2
18/05:07am 9.4 -7.6 8.0 91 0.7 NW 87 106 47 57 1002.0 - 0.2
18/05:00am 9.5 -7.5 7.9 90 0.8 NW 87 102 47 55 1002.3 - 0.0
18/04:31am 9.3 -7.9 7.3 87 1.0 NW 87 107 47 58 1002.3 - 0.0
18/04:30am 9.4 -7.4 7.3 87 1.0 NW 85 102 46 55 1002.6 - 0.0
18/04:00am 9.7 -7.6 6.8 82 1.4 NW 87 106 47 57 1003.1 - 0.0
18/03:30am 9.9 -7.0 6.8 81 1.5 NW 85 111 46 60 1003.5 - 0.0
18/03:00am 10.0 -6.5 6.2 77 1.8 NW 82 102 44 55 1004.0 1004.1 0.0
18/02:30am 10.0 -5.7 6.2 77 1.8 NW 78 102 42 55 1004.9 - 0.0
18/02:00am 9.9 -5.0 6.2 78 1.7 NW 74 95 40 51 1005.5 - 0.0
18/01:32am 9.7 -5.8 5.5 75 1.9 NW 76 102 41 55 1005.6 - 0.0
18/01:30am 9.7 -5.3 5.7 76 1.8 NW 74 91 40 49 1006.1 - 0.0
18/01:00am 9.7 -5.4 5.3 74 2.0 NW 74 96 40 52 1006.9 - 0.0
18/12:30am 9.6 -4.7 5.4 75 1.9 NW 70 89 38 48 1007.1 - 0.0
18/12:19am 9.6 -4.7 5.8 77 1.8 NW 70 89 38 48 1007.7 - 0.0
18/12:00am 9.7 -4.6 5.7 76 1.8 NW 70 87 38 47 1008.0 1008.1 0.0
 
Date/Time
EDT
Temp
°C
App
Temp
°C
Dew
Point
°C
Rel
Hum
%
Delta-T
°C
Wind Press
QNH
hPa
Press
MSL
hPa
Rain since
9am
mm
Dir  Spd
km/h
Gust
km/h
Spd
kts
Gust
kts
17/11:32pm 9.7 -5.0 5.7 76 1.8 NW 72 93 39 50 1008.6 - 0.0
17/11:30pm 9.6 -4.7 5.6 76 1.8 NW 70 87 38 47 1008.8 - 0.0
17/11:00pm 9.7 -4.4 5.5 75 1.9 NW 69 87 37 47 1009.1 - 0.0
17/10:41pm 9.5 -4.3 5.1 74 2.0 NW 67 89 36 48 1009.4 - 0.0
17/10:30pm 9.7 -4.4 5.5 75 1.9 NW 69 82 37 44 1010.0 - 0.0
17/10:00pm 9.1 -4.3 5.3 77 1.7 NW 65 78 35 42 1010.4 - 0.0
17/09:30pm 9.3 -4.1 5.3 76 1.8 NW 65 83 35 45 1011.0 - 0.0
17/09:09pm 9.3 -3.3 5.7 78 1.7 NW 61 80 33 43 1011.3 - 0.0
17/09:00pm 9.1 -2.8 5.1 76 1.8 NW 57 70 31 38 1011.3 1011.4 0.0
17/08:44pm 9.3 -2.4 5.1 75 1.9 NW 56 74 30 40 1011.2 - 0.0
17/08:30pm 9.3 -2.1 4.7 73 2.1 NW 54 65 29 35 1011.8 - 0.0
17/08:00pm 9.2 -2.7 4.4 72 2.1 NW 56 69 30 37 1012.2 - 0.0
17/07:30pm 9.2 -2.6 4.8 74 2.0 NW 56 69 30 37 1012.9 - 0.0
17/07:00pm 9.1 -2.8 4.5 73 2.1 NW 56 65 30 35 1013.2 - 0.0
17/06:30pm 9.0 -3.1 4.0 71 2.2 NW 57 69 31 37 1012.8 - 0.0
17/06:00pm 9.3 -3.9 4.3 71 2.2 NW 63 72 34 39 1013.3 1013.4 0.0
17/05:30pm 9.0 -4.3 4.0 71 2.2 NW 63 69 34 37 1013.8 - 0.0
17/05:00pm 9.0 -4.2 4.4 73 2.0 NW 63 72 34 39 1013.8 - 0.0
17/04:30pm 9.0 -4.7 4.0 71 2.2 NW 65 72 35 39 1014.1 - 0.0
17/04:00pm 9.3 -3.6 4.1 70 2.3 NW 61 70 33 38 1014.2 - 0.0
17/03:30pm 10.0 -2.5 4.0 66 2.7 NW 59 65 32 35 1014.4 - 0.0
17/03:00pm 10.0 -2.1 4.2 67 2.6 NW 57 65 31 35 1014.5 1014.6 0.0
17/02:30pm 8.6 -3.4 4.0 73 2.0 NW 56 61 30 33 1014.9 - 0.0
17/02:00pm 9.9 -0.9 4.3 68 2.5 WNW 50 59 27 32 1015.3 - 0.0
17/01:30pm 9.5 -1.8 3.5 66 2.6 WNW 52 59 28 32 1015.4 - 0.0
17/01:00pm 10.1 -2.1 3.6 64 2.9 WNW 57 67 31 36 1015.6 - 0.0
17/12:30pm 9.1 -2.6 3.1 66 2.6 WNW 54 63 29 34 1015.5 - 0.0
17/12:00pm 10.1 -1.4 4.5 68 2.5 WNW 54 63 29 34 1015.3 1015.5 0.0
17/11:30am 9.6 -1.8 3.1 64 2.8 WNW 52 61 28 33 1015.6 - 0.0
17/11:00am 8.9 -0.9 3.3 68 2.4 WNW 44 52 24 28 1015.8 - 0.0
17/10:30am 9.3 -0.8 3.7 68 2.5 WNW 46 56 25 30 1016.0 - 0.0
17/10:00am 8.9 -0.7 3.5 69 2.3 WNW 43 52 23 28 1015.7 - 0.0
17/09:30am 7.9 -2.8 2.8 70 2.2 WNW 48 61 26 33 1015.6 - 0.0
17/09:00am 8.0 -1.6 3.5 73 1.9 WNW 43 54 23 29 1015.5 1015.7 5.4
17/08:30am 7.2 -3.7 3.3 76 1.7 WNW 50 57 27 31 1014.7 - 5.4
17/08:07am 7.6 -5.2 2.7 71 2.1 WNW 59 72 32 39 1014.3 - 5.4
17/08:05am 8.1 0.3 3.0 70 2.2 W 33 52 18 28 1014.9 - 5.4
17/08:00am 8.0 0.2 2.9 70 2.2 W 33 46 18 25 1014.9 - 5.4
17/07:30am 7.6 -2.3 2.7 71 2.1 WNW 44 57 24 31 1014.2 - 5.4
17/07:00am 7.6 -0.7 2.3 69 2.2 W 35 46 19 25 1014.1 - 5.4
17/06:30am 7.4 -0.9 2.3 70 2.1 W 35 48 19 26 1013.8 - 5.2
17/06:00am 7.5 -1.8 3.0 73 1.9 W 41 50 22 27 1013.4 1013.5 5.2
17/05:30am 7.2 -2.6 3.1 75 1.7 WNW 44 57 24 31 1012.8 - 5.2
17/05:00am 6.5 -1.1 2.9 78 1.5 W 32 43 17 23 1012.8 - 5.2
17/04:55am 6.2 -0.7 2.7 78 1.5 W 28 37 15 20 1012.8 - 5.2
17/04:37am 5.7 -4.8 1.6 75 1.7 WSW 46 65 25 35 1013.0 - 5.2
17/04:34am 6.2 -5.0 1.9 74 1.8 WSW 50 65 27 35 1013.1 - 5.2
17/04:30am 7.4 -3.6 3.1 74 1.8 WNW 50 59 27 32 1012.2 - 5.2
17/04:15am 7.2 -3.2 2.3 71 2.0 W 46 67 25 36 1011.9 - 5.2
17/04:00am 7.2 -4.0 1.7 68 2.3 W 50 59 27 32 1012.4 - 5.2
17/03:30am 7.3 -2.0 3.0 74 1.8 W 41 56 22 30 1012.2 - 5.2
17/03:28am 7.2 -2.5 2.9 74 1.8 W 43 54 23 29 1012.1 - 5.2
17/03:00am 6.8 -4.1 3.8 81 1.3 WNW 50 61 27 33 1011.6 1011.7 5.2
17/02:30am 6.6 -6.7 3.8 82 1.2 WNW 63 72 34 39 1011.0 - 5.2
17/02:27am 6.6 -3.0 3.4 80 1.4 W 43 61 23 33 1011.5 - 5.2
17/02:08am 6.1 -3.7 3.3 82 1.2 W 44 52 24 28 1011.7 - 5.0
17/02:06am 6.3 -7.5 3.5 82 1.2 WNW 65 83 35 45 1011.5 - 5.0
17/02:00am 6.7 -8.5 3.1 78 1.5 WNW 72 83 39 45 1010.9 - 5.0
17/01:58am 7.1 -8.0 3.3 77 1.6 WNW 72 83 39 45 1010.6 - 5.0
17/01:57am 7.2 -4.2 3.1 75 1.7 W 52 83 28 45 1010.7 - 5.0
17/01:30am 6.6 -3.6 3.2 79 1.4 W 46 56 25 30 1011.2 - 5.0
17/01:12am 6.1 -3.6 3.1 81 1.3 W 43 54 23 29 1011.2 - 5.0
17/01:02am 5.9 -7.6 2.9 81 1.3 W 63 83 34 45 1011.3 - 4.8
17/01:00am 5.7 -9.6 2.4 79 1.4 W 72 83 39 45 1011.1 - 4.8
17/12:52am 7.1 -3.9 3.2 76 1.7 WNW 50 80 27 43 1011.1 - 4.8
17/12:30am 7.0 -3.6 2.9 75 1.7 W 48 56 26 30 1011.0 - 4.8
17/12:00am 6.9 -3.7 3.2 77 1.6 W 48 61 26 33 1011.0 1011.1 4.8
 
Date/Time
EDT
Temp
°C
App
Temp
°C
Dew
Point
°C
Rel
Hum
%
Delta-T
°C
Wind Press
QNH
hPa
Press
MSL
hPa
Rain since
9am
mm
Dir  Spd
km/h
Gust
km/h
Spd
kts
Gust
kts
16/11:36pm 6.3 -4.3 3.1 80 1.3 W 48 67 26 36 1011.1 - 4.8
16/11:30pm 6.8 -4.9 3.1 77 1.6 W 54 67 29 36 1011.2 - 4.8
16/11:10pm 6.8 -3.7 3.9 82 1.2 WNW 48 59 26 32 1010.5 - 4.8
16/11:02pm 6.5 -8.0 3.5 81 1.3 WNW 69 87 37 47 1010.3 - 4.8
16/11:00pm 6.4 -8.7 3.4 81 1.3 WNW 72 87 39 47 1010.2 - 4.8
16/10:46pm 6.8 -9.1 3.2 78 1.5 WNW 76 82 41 44 1010.2 - 4.4
16/10:44pm 7.5 -2.2 3.7 77 1.6 W 44 80 24 43 1010.5 - 4.4
16/10:30pm 7.3 -4.4 3.4 76 1.7 WNW 54 63 29 34 1010.5 - 4.4
16/10:00pm 7.8 -5.4 4.6 80 1.4 WNW 63 72 34 39 1009.9 - 4.4
16/09:30pm 7.6 -4.3 5.1 84 1.1 WNW 57 67 31 36 1009.5 - 4.4
16/09:00pm 6.6 -3.8 4.4 86 1.0 WNW 48 57 26 31 1009.4 1009.5 4.4
16/08:33pm 6.1 -5.6 3.3 82 1.2 W 54 74 29 40 1009.8 - 4.0
16/08:30pm 7.2 -3.5 4.7 84 1.1 W 50 63 27 34 1009.4 - 4.0
16/08:04pm 6.7 -5.0 3.5 80 1.4 W 54 72 29 39 1009.0 - 4.0
16/08:00pm 7.2 -5.7 3.8 79 1.5 WNW 61 72 33 39 1009.1 - 4.0
16/07:45pm 7.5 -5.3 4.8 83 1.2 WNW 61 80 33 43 1008.1 - 4.0
16/07:30pm 7.6 -6.7 4.9 83 1.2 WNW 69 82 37 44 1007.9 - 4.0
16/07:00pm 6.8 -7.6 4.1 83 1.2 WNW 69 76 37 41 1008.1 - 3.6
16/06:31pm 7.6 -5.3 4.0 78 1.6 WNW 61 83 33 45 1007.4 - 2.8
16/06:30pm 8.0 -4.4 4.6 79 1.5 WNW 59 72 32 39 1007.7 - 2.6
16/06:00pm 7.8 -5.8 4.6 80 1.4 WNW 65 82 35 44 1007.5 1007.6 2.6
16/05:30pm 8.1 -4.4 3.9 75 1.8 WNW 59 91 32 49 1006.6 - 2.2
16/05:15pm 8.6 -2.2 4.0 73 2.0 W 50 57 27 31 1007.9 - 2.2
16/05:00pm 9.6 -5.2 5.2 74 2.0 WNW 72 83 39 45 1006.6 - 2.2
16/04:38pm 8.2 -6.1 4.4 77 1.7 WNW 69 100 37 54 1005.8 - 2.2
16/04:30pm 8.4 -5.6 4.2 75 1.8 WNW 67 76 36 41 1006.8 - 2.2
16/04:11pm 8.2 -4.2 4.4 77 1.7 WNW 59 65 32 35 1006.8 - 2.2
16/04:04pm 8.1 -8.5 3.8 74 1.9 WNW 80 98 43 53 1007.0 - 2.2
16/04:00pm 9.3 -7.7 4.7 73 2.1 WNW 83 95 45 51 1005.5 - 2.2
16/03:42pm 9.3 -7.1 4.7 73 2.1 WNW 80 100 43 54 1005.7 - 2.2
16/03:30pm 8.4 -6.0 5.0 79 1.5 WNW 70 80 38 43 1006.3 - 2.2
16/03:00pm 6.6 -10.5 3.9 83 1.2 WNW 83 102 45 55 1006.7 1006.8 2.0
16/02:50pm 8.1 -10.4 4.3 77 1.7 NW 91 102 49 55 1005.2 - 1.8
16/02:30pm 8.6 -5.7 4.6 76 1.8 NW 69 82 37 44 1005.7 - 1.8
16/02:15pm 7.4 -7.7 3.6 77 1.6 NW 72 83 39 45 1005.9 - 1.8
16/02:09pm 7.1 -12.0 3.2 76 1.7 NW 93 115 50 62 1005.5 - 1.8
16/02:08pm 7.0 -13.2 2.7 74 1.8 NW 98 115 53 62 1005.0 - 1.8
16/02:00pm 7.7 -8.0 4.5 80 1.4 WNW 76 95 41 51 1006.1 - 1.6
16/01:30pm 8.5 -6.2 5.4 81 1.4 WNW 72 89 39 48 1005.8 - 1.6
16/01:25pm 7.3 -8.3 4.6 83 1.2 WNW 76 95 41 51 1006.4 - 1.6
16/01:07pm 7.8 -8.7 4.0 77 1.7 NW 80 83 43 45 1005.7 - 1.2
16/01:02pm 8.2 -11.7 4.2 76 1.8 NW 98 104 53 56 1004.7 - 1.2
16/01:00pm 8.8 -6.1 4.6 75 1.9 WNW 72 95 39 51 1005.7 - 1.2
16/12:43pm 8.5 -7.9 4.7 77 1.7 WNW 80 98 43 53 1006.0 - 1.2
16/12:30pm 8.3 -8.8 3.8 73 2.0 NW 83 100 45 54 1005.3 - 1.2
16/12:00pm 8.7 -9.0 4.7 76 1.8 WNW 87 96 47 52 1005.5 1005.6 1.2
16/11:30am 9.0 -7.8 5.4 78 1.6 WNW 83 95 45 51 1005.4 - 1.2
16/11:05am 7.4 -9.6 4.2 80 1.4 WNW 83 102 45 55 1005.4 - 1.2
16/11:00am 6.8 -11.1 3.9 82 1.2 WNW 87 102 47 55 1005.5 - 1.2
16/10:46am 8.2 -9.7 3.9 74 1.9 NW 87 106 47 57 1005.5 - 0.8
16/10:30am 8.7 -9.0 4.7 76 1.8 NW 87 100 47 54 1005.0 - 0.8
16/10:00am 7.2 -9.2 4.7 84 1.1 WNW 80 102 43 55 1005.1 - 0.8
16/09:40am 7.0 -8.4 4.1 82 1.3 WNW 74 104 40 56 1005.6 - 0.4
16/09:30am 7.6 -7.3 4.7 82 1.3 WNW 72 80 39 43 1005.8 - 0.4
16/09:12am 8.0 -8.6 3.7 74 1.9 NW 80 102 43 55 1005.7 - 0.0
16/09:00am 8.1 -8.8 4.1 76 1.8 NW 82 91 44 49 1004.9 1005.0 4.8
16/08:30am 6.9 -11.5 3.3 78 1.5 WNW 89 111 48 60 1004.2 - 4.8
16/08:23am 8.4 -8.0 4.6 77 1.7 NW 80 104 43 56 1004.6 - 4.6
16/08:00am 7.8 -7.1 4.6 80 1.4 NW 72 83 39 45 1004.8 - 4.6
16/07:30am 7.4 -9.6 3.6 77 1.6 WNW 82 102 44 55 1004.5 - 4.6
16/07:28am 8.4 -7.4 4.0 74 1.9 WNW 76 102 41 55 1004.4 - 4.6
16/07:00am 7.9 -7.1 3.9 76 1.7 WNW 72 82 39 44 1004.6 - 4.6
16/06:48am 7.9 -6.5 4.1 77 1.7 WNW 69 87 37 47 1004.8 - 4.6
16/06:30am 7.9 -7.0 4.3 78 1.6 WNW 72 83 39 45 1004.3 - 4.6
16/06:07am 6.6 -8.0 2.9 77 1.6 WNW 69 91 37 49 1004.4 - 4.6
16/06:05am 6.8 -7.0 3.2 78 1.5 WNW 65 74 35 40 1004.4 - 4.6
16/06:00am 7.2 -10.5 2.9 74 1.8 WNW 85 - 46 - - 1005.1 -
16/05:59am 7.5 -10.9 3.0 73 1.9 WNW 89 104 48 56 1004.9 - 4.6
16/05:44am 8.2 -8.8 4.2 76 1.8 NW 83 102 45 55 1002.6 - 4.6
16/05:30am 7.8 -10.8 4.2 78 1.6 WNW 91 98 49 53 1002.8 - 4.6
16/05:28am 7.7 -10.9 4.1 78 1.6 NW 91 98 49 53 1002.5 - 4.6
16/05:26am 7.3 -6.7 4.3 81 1.3 WNW 67 89 36 48 1003.2 - 4.6
16/05:08am 6.5 -5.8 2.9 78 1.5 WNW 57 67 31 36 1004.1 - 4.4
16/05:00am 8.3 -8.6 4.1 75 1.8 WNW 82 95 44 51 1002.9 - 4.4
16/04:42am 8.2 -9.7 3.5 72 2.0 WNW 87 106 47 57 1002.5 - 4.4
16/04:30am 8.3 -9.6 3.8 73 2.0 WNW 87 102 47 55 1002.6 - 4.4
16/04:00am 8.0 -10.6 4.2 77 1.7 NW 91 104 49 56 1001.9 - 4.4
16/03:56am 8.4 -8.5 4.8 78 1.6 NW 83 104 45 56 1001.8 - 4.4
16/03:30am 7.3 -8.8 4.1 80 1.4 NW 78 89 42 48 1003.0 - 4.4
16/03:00am 8.3 -8.7 3.6 72 2.1 WNW 82 95 44 51 1002.3 1002.3 4.4
16/02:54am 8.3 -6.6 4.3 76 1.8 WNW 72 95 39 51 1002.5 - 4.4
16/02:30am 7.9 -9.1 3.6 74 1.9 NW 82 95 44 51 1003.0 - 4.4
16/02:00am 8.1 -7.7 3.9 75 1.8 NW 76 89 41 48 1002.5 - 4.4
16/01:30am 7.8 -7.5 4.4 79 1.5 WNW 74 83 40 45 1003.3 - 4.4
16/01:00am 7.3 -7.6 4.3 81 1.3 WNW 72 83 39 45 1003.2 - 4.4
16/12:30am 6.3 -8.4 3.5 82 1.2 WNW 70 102 38 55 1003.6 - 4.0
16/12:23am 8.2 -7.4 4.8 79 1.5 NW 76 100 41 54 1002.4 - 3.4
16/12:00am 7.9 -7.0 4.5 79 1.5 NW 72 82 39 44 1002.9 1002.9 3.4
 
Date/Time
EDT
Temp
°C
App
Temp
°C
Dew
Point
°C
Rel
Hum
%
Delta-T
°C
Wind Press
QNH
hPa
Press
MSL
hPa
Rain since
9am
mm
Dir  Spd
km/h
Gust
km/h
Spd
kts
Gust
kts
15/11:30pm 7.7 -6.6 4.5 80 1.4 WNW 69 78 37 42 1003.0 - 3.4
15/11:00pm 7.1 -7.2 4.6 84 1.1 NW 69 82 37 44 1003.0 - 3.4
15/10:48pm 7.4 -6.9 4.5 82 1.3 WNW 69 74 37 40 1002.9 - 3.2
15/10:35pm 6.6 -3.6 3.4 80 1.4 W 46 56 25 30 1003.9 - 3.2
15/10:30pm 6.9 -6.9 3.3 78 1.5 WNW 65 76 35 41 1003.8 - 3.2
15/10:00pm 8.0 -5.9 4.8 80 1.4 WNW 67 78 36 42 1002.6 - 3.2
15/09:30pm 7.7 -6.1 5.2 84 1.1 WNW 67 95 36 51 1002.6 - 3.2
15/09:21pm 8.0 -4.8 4.8 80 1.4 WNW 61 82 33 44 1002.9 - 2.6
15/09:00pm 7.2 -6.4 4.3 82 1.3 WNW 65 82 35 44 1002.5 1002.5 2.6
15/08:50pm 7.6 -6.0 4.4 80 1.4 WNW 65 89 35 48 1001.8 - 2.6
15/08:30pm 8.2 -6.1 4.8 79 1.5 WNW 69 78 37 42 1001.7 - 2.6
15/08:00pm 7.6 -6.0 4.6 81 1.3 WNW 65 72 35 39 1001.7 - 2.6
15/07:31pm 7.8 -5.7 4.7 81 1.4 WNW 65 83 35 45 1001.1 - 2.6
15/07:30pm 7.7 -5.8 4.7 81 1.3 WNW 65 82 35 44 1001.1 - 2.6
15/07:19pm 8.4 -5.5 4.8 78 1.6 WNW 67 89 36 48 1000.9 - 2.2
15/07:00pm 8.6 -5.6 5.2 79 1.5 WNW 69 76 37 41 1000.5 - 2.2
15/06:30pm 7.9 -6.6 4.8 81 1.4 WNW 70 80 38 43 1000.2 - 2.2
15/06:13pm 8.8 -6.3 5.2 78 1.6 NW 74 98 40 53 999.4 - 1.4
15/06:00pm 9.1 -6.4 5.1 76 1.8 WNW 76 89 41 48 999.9 1000.0 1.4
15/05:30pm 9.3 -5.7 5.7 78 1.7 WNW 74 87 40 47 999.6 - 1.4
15/05:00pm 7.9 -8.1 4.8 81 1.4 WNW 78 102 42 55 999.1 - 1.4
15/04:56pm 8.4 -8.0 4.4 76 1.8 WNW 80 102 43 55 999.1 - 1.0
15/04:30pm 8.7 -6.7 5.8 82 1.3 NW 76 87 41 47 998.6 - 1.0
15/04:19pm 8.1 -6.6 5.4 83 1.2 WNW 72 91 39 49 998.4 - 1.0
15/04:00pm 8.8 -8.0 4.6 75 1.9 NW 82 93 44 50 998.0 - 0.6
15/03:45pm 9.1 -7.7 4.5 73 2.1 NW 82 102 44 55 997.0 - 0.6
15/03:30pm 9.2 -8.1 5.0 75 1.9 NW 85 98 46 53 997.7 - 0.6
15/03:12pm 8.6 -8.1 5.9 83 1.2 WNW 83 91 45 49 997.9 - 0.6
15/03:06pm 7.8 -5.7 4.9 82 1.3 WNW 65 85 35 46 998.2 - 0.6
15/03:00pm 7.2 -6.2 3.4 77 1.6 WNW 63 74 34 40 998.7 998.8 0.4
15/02:58pm 7.6 -5.5 3.1 73 1.9 W 61 74 33 40 999.0 - 0.4
15/02:30pm 9.3 -7.1 4.7 73 2.1 NW 80 93 43 50 997.7 - 0.4
15/02:00pm 9.7 -6.6 5.1 73 2.1 NW 80 91 43 49 997.4 - 0.4
15/01:30pm 9.3 -7.0 5.1 75 1.9 WNW 80 93 43 50 997.6 - 0.4
15/01:02pm 8.0 -7.6 4.8 80 1.4 NW 76 95 41 51 997.4 - 0.4
15/01:00pm 7.7 -8.5 3.6 75 1.8 NW 78 95 42 51 996.6 - 0.4
15/12:42pm 9.6 -6.5 4.2 69 2.4 NW 78 96 42 52 997.5 - 0.4
15/12:30pm 9.3 -7.7 4.3 71 2.2 WNW 83 95 45 51 997.0 - 0.4
15/12:00pm 9.1 -7.3 4.7 74 2.0 NW 80 89 43 48 997.2 997.2 0.4
15/11:48am 8.3 -9.8 4.7 78 1.6 NW 89 107 48 58 997.2 - 0.4
15/11:30am 8.5 -8.2 4.9 78 1.6 WNW 82 96 44 52 996.5 - 0.4
15/11:00am 8.6 -8.4 4.6 76 1.8 NW 83 96 45 52 996.6 - 0.0
15/10:42am 9.2 -8.2 4.2 71 2.2 NW 85 106 46 57 996.0 - 0.0
15/10:30am 9.4 -9.2 4.2 70 2.3 NW 91 102 49 55 996.1 - 0.0
15/10:00am 9.6 -8.1 4.8 72 2.2 NW 87 98 47 53 996.4 - 0.0
15/09:30am 9.2 -8.0 5.4 77 1.7 NW 85 93 46 50 996.5 - 0.0
15/09:00am 8.2 -7.8 4.8 79 1.5 NW 78 89 42 48 996.7 996.7 5.8
15/08:30am 9.1 -9.0 4.5 73 2.1 NW 89 117 48 63 996.2 - 5.8
15/08:00am 9.4 -9.9 4.2 70 2.3 NW 95 104 51 56 995.5 - 5.8
15/07:30am 9.3 -10.2 4.5 72 2.1 NW 96 107 52 58 995.6 - 5.8
15/07:00am 8.1 -11.1 4.7 79 1.5 NW 95 117 51 63 995.7 - 5.8
15/06:50am 7.8 -12.4 4.6 80 1.4 WNW 100 119 54 64 994.9 - 5.8

Other formats

Comma delimited format used in spreadsheet applications
http://www.bom.gov.au/fwo/IDT60801/IDT60801.94962.axf

JavaScript Object Notation format (JSON) in row-major order
http://www.bom.gov.au/fwo/IDT60801/IDT60801.94962.json

Data quality

Most of these data are generated automatically and are frequently updated. Quality checks on data are not normally performed. It is possible for incorrect values to appear. Refer to information at About Latest Weather Observations and please check the disclaimer before using these data.